Terminal Aerodrome Forecast
Issued by NWS Memphis, TN

Home | Current Version | Previous Version | Text Only | Print | Product List | Glossary On
Versions: 1 2 3 4 5 6 7 8 9 10 11 12 13 14 15 16
000
FTUS44 KMEG 261138
TAFMKL
TAF
KMKL 261138Z 2612/2712 00000KT P6SM SCT250
     FM261500 16008KT P6SM FEW050 BKN250
     FM261900 18010G16KT P6SM VCSH OVC050
      TEMPO 2619/2623 6SM -RA BKN025
     FM262300 28010KT P6SM BKN025
     FM270600 31010KT P6SM OVC015=

USA.gov is the U.S. government's official web portal to all federal, state and local government web resources and services.